sensor_id;sensor_type;location;lat;lon;timestamp;P1;durP1;ratioP1;P2;durP2;ratioP2
16314;SDS011;8266;52.150;4.768;2023-12-28T00:02:00;6.30;;;1.73;;
16314;SDS011;8266;52.150;4.768;2023-12-28T00:04:29;9.25;;;2.53;;
16314;SDS011;8266;52.150;4.768;2023-12-28T00:06:56;7.38;;;2.33;;
16314;SDS011;8266;52.150;4.768;2023-12-28T00:09:23;4.25;;;1.83;;
16314;SDS011;8266;52.150;4.768;2023-12-28T00:11:50;4.63;;;2.25;;
16314;SDS011;8266;52.150;4.768;2023-12-28T00:14:17;6.22;;;2.15;;
16314;SDS011;8266;52.150;4.768;2023-12-28T00:16:44;5.43;;;1.80;;
16314;SDS011;8266;52.150;4.768;2023-12-28T00:19:11;4.90;;;2.20;;
16314;SDS011;8266;52.150;4.768;2023-12-28T00:21:40;4.32;;;2.22;;
16314;SDS011;8266;52.150;4.768;2023-12-28T00:24:07;6.90;;;1.98;;
16314;SDS011;8266;52.150;4.768;2023-12-28T00:26:34;7.22;;;2.58;;
16314;SDS011;8266;52.150;4.768;2023-12-28T00:29:01;4.53;;;2.38;;
16314;SDS011;8266;52.150;4.768;2023-12-28T00:31:28;6.50;;;2.75;;
16314;SDS011;8266;52.150;4.768;2023-12-28T00:33:55;6.72;;;2.58;;
16314;SDS011;8266;52.150;4.768;2023-12-28T00:36:22;5.95;;;2.25;;
16314;SDS011;8266;52.150;4.768;2023-12-28T00:38:51;3.65;;;1.92;;
16314;SDS011;8266;52.150;4.768;2023-12-28T00:41:18;4.95;;;1.90;;
16314;SDS011;8266;52.150;4.768;2023-12-28T00:43:45;5.95;;;2.17;;
16314;SDS011;8266;52.150;4.768;2023-12-28T00:46:12;6.07;;;1.92;;
16314;SDS011;8266;52.150;4.768;2023-12-28T00:48:40;3.97;;;2.20;;
16314;SDS011;8266;52.150;4.768;2023-12-28T00:51:07;5.47;;;2.15;;
16314;SDS011;8266;52.150;4.768;2023-12-28T00:53:34;6.53;;;2.20;;
16314;SDS011;8266;52.150;4.768;2023-12-28T00:56:02;4.85;;;1.73;;
16314;SDS011;8266;52.150;4.768;2023-12-28T00:58:30;10.88;;;2.20;;
16314;SDS011;8266;52.150;4.768;2023-12-28T01:00:57;5.55;;;1.73;;
16314;SDS011;8266;52.150;4.768;2023-12-28T01:03:24;7.10;;;2.03;;
16314;SDS011;8266;52.150;4.768;2023-12-28T01:05:51;6.72;;;1.77;;
16314;SDS011;8266;52.150;4.768;2023-12-28T01:08:18;6.63;;;1.95;;
16314;SDS011;8266;52.150;4.768;2023-12-28T01:10:45;6.57;;;2.05;;
16314;SDS011;8266;52.150;4.768;2023-12-28T01:13:14;7.28;;;1.88;;
16314;SDS011;8266;52.150;4.768;2023-12-28T01:15:41;7.03;;;1.95;;
16314;SDS011;8266;52.150;4.768;2023-12-28T01:18:08;4.32;;;1.70;;
16314;SDS011;8266;52.150;4.768;2023-12-28T01:20:35;6.88;;;2.00;;
16314;SDS011;8266;52.150;4.768;2023-12-28T01:23:02;7.45;;;1.90;;
16314;SDS011;8266;52.150;4.768;2023-12-28T01:25:29;4.20;;;1.67;;
16314;SDS011;8266;52.150;4.768;2023-12-28T01:27:56;4.55;;;1.90;;
16314;SDS011;8266;52.150;4.768;2023-12-28T01:30:25;4.72;;;1.77;;
16314;SDS011;8266;52.150;4.768;2023-12-28T01:32:52;6.15;;;1.77;;
16314;SDS011;8266;52.150;4.768;2023-12-28T01:35:19;4.95;;;2.00;;
16314;SDS011;8266;52.150;4.768;2023-12-28T01:37:46;5.65;;;1.70;;
16314;SDS011;8266;52.150;4.768;2023-12-28T01:40:14;5.30;;;1.52;;
16314;SDS011;8266;52.150;4.768;2023-12-28T01:42:42;6.25;;;1.85;;
16314;SDS011;8266;52.150;4.768;2023-12-28T01:45:09;3.95;;;2.10;;
16314;SDS011;8266;52.150;4.768;2023-12-28T01:47:38;7.38;;;2.05;;
16314;SDS011;8266;52.150;4.768;2023-12-28T01:50:06;4.97;;;2.10;;
16314;SDS011;8266;52.150;4.768;2023-12-28T01:52:33;6.68;;;1.58;;
16314;SDS011;8266;52.150;4.768;2023-12-28T01:55:01;6.57;;;1.80;;
16314;SDS011;8266;52.150;4.768;2023-12-28T01:57:28;4.53;;;1.90;;
16314;SDS011;8266;52.150;4.768;2023-12-28T01:59:56;3.75;;;1.70;;
16314;SDS011;8266;52.150;4.768;2023-12-28T02:02:26;5.65;;;1.83;;
16314;SDS011;8266;52.150;4.768;2023-12-28T02:04:55;2.88;;;2.00;;
16314;SDS011;8266;52.150;4.768;2023-12-28T02:07:22;6.40;;;1.90;;
16314;SDS011;8266;52.150;4.768;2023-12-28T02:09:51;3.78;;;2.17;;
16314;SDS011;8266;52.150;4.768;2023-12-28T02:12:18;5.35;;;2.00;;
16314;SDS011;8266;52.150;4.768;2023-12-28T02:14:45;4.35;;;2.65;;
16314;SDS011;8266;52.150;4.768;2023-12-28T02:17:14;6.35;;;2.17;;
16314;SDS011;8266;52.150;4.768;2023-12-28T02:19:47;4.65;;;2.03;;
16314;SDS011;8266;52.150;4.768;2023-12-28T02:22:18;12.20;;;2.22;;
16314;SDS011;8266;52.150;4.768;2023-12-28T02:24:54;3.88;;;1.90;;
16314;SDS011;8266;52.150;4.768;2023-12-28T02:27:26;6.25;;;2.10;;
16314;SDS011;8266;52.150;4.768;2023-12-28T02:29:54;4.63;;;1.83;;
16314;SDS011;8266;52.150;4.768;2023-12-28T02:32:22;6.38;;;1.98;;
16314;SDS011;8266;52.150;4.768;2023-12-28T02:34:55;5.40;;;1.90;;
16314;SDS011;8266;52.150;4.768;2023-12-28T02:37:32;5.00;;;1.70;;
16314;SDS011;8266;52.150;4.768;2023-12-28T02:40:02;3.75;;;1.60;;
16314;SDS011;8266;52.150;4.768;2023-12-28T02:42:30;5.75;;;1.85;;
16314;SDS011;8266;52.150;4.768;2023-12-28T02:44:57;3.78;;;1.80;;
16314;SDS011;8266;52.150;4.768;2023-12-28T02:47:24;6.72;;;1.95;;
16314;SDS011;8266;52.150;4.768;2023-12-28T02:49:51;7.25;;;2.10;;
16314;SDS011;8266;52.150;4.768;2023-12-28T02:52:18;6.03;;;1.88;;
16314;SDS011;8266;52.150;4.768;2023-12-28T02:54:45;3.92;;;1.50;;
16314;SDS011;8266;52.150;4.768;2023-12-28T02:57:14;6.68;;;1.65;;
16314;SDS011;8266;52.150;4.768;2023-12-28T02:59:43;4.20;;;1.50;;
16314;SDS011;8266;52.150;4.768;2023-12-28T03:02:10;7.05;;;2.67;;
16314;SDS011;8266;52.150;4.768;2023-12-28T03:04:37;5.72;;;1.80;;
16314;SDS011;8266;52.150;4.768;2023-12-28T03:07:05;5.95;;;1.85;;
16314;SDS011;8266;52.150;4.768;2023-12-28T03:09:34;4.32;;;1.63;;
16314;SDS011;8266;52.150;4.768;2023-12-28T03:12:03;3.70;;;1.63;;
16314;SDS011;8266;52.150;4.768;2023-12-28T03:14:33;4.80;;;1.77;;
16314;SDS011;8266;52.150;4.768;2023-12-28T03:17:00;4.78;;;1.67;;
16314;SDS011;8266;52.150;4.768;2023-12-28T03:19:27;8.02;;;1.92;;
16314;SDS011;8266;52.150;4.768;2023-12-28T03:21:54;12.32;;;2.60;;
16314;SDS011;8266;52.150;4.768;2023-12-28T03:24:21;10.10;;;1.73;;
16314;SDS011;8266;52.150;4.768;2023-12-28T03:26:48;6.45;;;1.83;;
16314;SDS011;8266;52.150;4.768;2023-12-28T03:29:15;4.80;;;1.75;;
16314;SDS011;8266;52.150;4.768;2023-12-28T03:31:43;11.38;;;1.50;;
16314;SDS011;8266;52.150;4.768;2023-12-28T03:34:10;7.03;;;1.77;;
16314;SDS011;8266;52.150;4.768;2023-12-28T03:36:38;4.85;;;1.30;;
16314;SDS011;8266;52.150;4.768;2023-12-28T03:39:05;5.72;;;1.55;;
16314;SDS011;8266;52.150;4.768;2023-12-28T03:41:32;6.90;;;1.98;;
16314;SDS011;8266;52.150;4.768;2023-12-28T03:43:59;6.82;;;1.75;;
16314;SDS011;8266;52.150;4.768;2023-12-28T03:46:26;7.18;;;1.80;;
16314;SDS011;8266;52.150;4.768;2023-12-28T03:48:55;8.77;;;2.05;;
16314;SDS011;8266;52.150;4.768;2023-12-28T03:51:22;6.93;;;1.58;;
16314;SDS011;8266;52.150;4.768;2023-12-28T03:53:49;5.95;;;1.55;;
16314;SDS011;8266;52.150;4.768;2023-12-28T03:56:20;5.53;;;1.98;;
16314;SDS011;8266;52.150;4.768;2023-12-28T03:58:48;5.25;;;1.55;;
16314;SDS011;8266;52.150;4.768;2023-12-28T04:01:15;12.63;;;2.60;;
16314;SDS011;8266;52.150;4.768;2023-12-28T04:03:43;4.88;;;1.60;;
16314;SDS011;8266;52.150;4.768;2023-12-28T04:06:12;3.20;;;1.23;;
16314;SDS011;8266;52.150;4.768;2023-12-28T04:08:39;5.53;;;1.83;;
16314;SDS011;8266;52.150;4.768;2023-12-28T04:11:06;6.90;;;2.00;;
16314;SDS011;8266;52.150;4.768;2023-12-28T04:13:34;5.93;;;1.73;;
16314;SDS011;8266;52.150;4.768;2023-12-28T04:16:01;7.60;;;1.80;;
16314;SDS011;8266;52.150;4.768;2023-12-28T04:18:29;6.78;;;2.03;;
16314;SDS011;8266;52.150;4.768;2023-12-28T04:20:56;7.28;;;2.10;;
16314;SDS011;8266;52.150;4.768;2023-12-28T04:23:24;7.47;;;1.73;;
16314;SDS011;8266;52.150;4.768;2023-12-28T04:25:51;9.88;;;2.35;;
16314;SDS011;8266;52.150;4.768;2023-12-28T04:28:18;7.20;;;1.73;;
16314;SDS011;8266;52.150;4.768;2023-12-28T04:30:45;9.85;;;3.03;;
16314;SDS011;8266;52.150;4.768;2023-12-28T04:33:12;7.88;;;2.00;;
16314;SDS011;8266;52.150;4.768;2023-12-28T04:35:39;8.20;;;2.15;;
16314;SDS011;8266;52.150;4.768;2023-12-28T04:38:08;6.43;;;2.15;;
16314;SDS011;8266;52.150;4.768;2023-12-28T04:40:36;10.02;;;2.42;;
16314;SDS011;8266;52.150;4.768;2023-12-28T04:43:03;10.52;;;1.83;;
16314;SDS011;8266;52.150;4.768;2023-12-28T04:45:30;11.55;;;2.20;;
16314;SDS011;8266;52.150;4.768;2023-12-28T04:47:57;8.13;;;2.00;;
16314;SDS011;8266;52.150;4.768;2023-12-28T04:50:25;10.68;;;2.28;;
16314;SDS011;8266;52.150;4.768;2023-12-28T04:52:52;6.13;;;2.15;;
16314;SDS011;8266;52.150;4.768;2023-12-28T04:55:19;9.40;;;2.40;;
16314;SDS011;8266;52.150;4.768;2023-12-28T04:57:48;10.38;;;1.80;;
16314;SDS011;8266;52.150;4.768;2023-12-28T05:00:15;8.77;;;2.10;;
16314;SDS011;8266;52.150;4.768;2023-12-28T05:02:42;9.75;;;2.13;;
16314;SDS011;8266;52.150;4.768;2023-12-28T05:05:11;8.70;;;2.03;;
16314;SDS011;8266;52.150;4.768;2023-12-28T05:07:38;9.35;;;1.85;;
16314;SDS011;8266;52.150;4.768;2023-12-28T05:10:05;9.43;;;1.80;;
16314;SDS011;8266;52.150;4.768;2023-12-28T05:12:33;12.88;;;2.00;;
16314;SDS011;8266;52.150;4.768;2023-12-28T05:15:01;10.80;;;2.75;;
16314;SDS011;8266;52.150;4.768;2023-12-28T05:17:28;12.98;;;2.60;;
16314;SDS011;8266;52.150;4.768;2023-12-28T05:19:56;9.60;;;2.75;;
16314;SDS011;8266;52.150;4.768;2023-12-28T05:22:23;9.60;;;1.75;;
16314;SDS011;8266;52.150;4.768;2023-12-28T05:24:50;11.07;;;2.30;;
16314;SDS011;8266;52.150;4.768;2023-12-28T05:27:17;15.98;;;2.65;;
16314;SDS011;8266;52.150;4.768;2023-12-28T05:29:44;10.02;;;1.92;;
16314;SDS011;8266;52.150;4.768;2023-12-28T05:32:12;7.95;;;1.77;;
16314;SDS011;8266;52.150;4.768;2023-12-28T05:34:40;10.50;;;2.17;;
16314;SDS011;8266;52.150;4.768;2023-12-28T05:37:07;11.15;;;2.17;;
16314;SDS011;8266;52.150;4.768;2023-12-28T05:39:34;9.02;;;2.15;;
16314;SDS011;8266;52.150;4.768;2023-12-28T05:42:01;7.65;;;2.00;;
16314;SDS011;8266;52.150;4.768;2023-12-28T05:44:28;11.10;;;2.20;;
16314;SDS011;8266;52.150;4.768;2023-12-28T05:46:55;9.13;;;2.45;;
16314;SDS011;8266;52.150;4.768;2023-12-28T05:49:24;15.55;;;2.47;;
16314;SDS011;8266;52.150;4.768;2023-12-28T05:51:53;12.18;;;2.75;;
16314;SDS011;8266;52.150;4.768;2023-12-28T05:54:20;8.82;;;2.40;;
16314;SDS011;8266;52.150;4.768;2023-12-28T05:56:47;7.38;;;2.47;;
16314;SDS011;8266;52.150;4.768;2023-12-28T05:59:14;8.82;;;2.22;;
16314;SDS011;8266;52.150;4.768;2023-12-28T06:01:42;11.15;;;2.35;;
16314;SDS011;8266;52.150;4.768;2023-12-28T06:04:09;9.77;;;2.33;;
16314;SDS011;8266;52.150;4.768;2023-12-28T06:06:38;10.10;;;2.70;;
16314;SDS011;8266;52.150;4.768;2023-12-28T06:09:05;11.07;;;2.65;;
16314;SDS011;8266;52.150;4.768;2023-12-28T06:11:33;14.93;;;3.30;;
16314;SDS011;8266;52.150;4.768;2023-12-28T06:14:00;10.75;;;3.25;;
16314;SDS011;8266;52.150;4.768;2023-12-28T06:16:27;12.07;;;2.83;;
16314;SDS011;8266;52.150;4.768;2023-12-28T06:18:57;11.57;;;2.78;;
16314;SDS011;8266;52.150;4.768;2023-12-28T06:21:25;12.40;;;2.78;;
16314;SDS011;8266;52.150;4.768;2023-12-28T06:23:53;16.38;;;3.78;;
16314;SDS011;8266;52.150;4.768;2023-12-28T06:26:21;9.93;;;2.88;;
16314;SDS011;8266;52.150;4.768;2023-12-28T06:28:48;11.32;;;2.65;;
16314;SDS011;8266;52.150;4.768;2023-12-28T06:31:15;16.63;;;3.72;;
16314;SDS011;8266;52.150;4.768;2023-12-28T06:33:42;9.02;;;2.60;;
16314;SDS011;8266;52.150;4.768;2023-12-28T06:36:10;10.63;;;3.17;;
16314;SDS011;8266;52.150;4.768;2023-12-28T06:38:37;12.75;;;2.88;;
16314;SDS011;8266;52.150;4.768;2023-12-28T06:41:11;14.48;;;3.10;;
16314;SDS011;8266;52.150;4.768;2023-12-28T06:43:38;11.15;;;2.22;;
16314;SDS011;8266;52.150;4.768;2023-12-28T06:46:05;21.40;;;3.95;;
16314;SDS011;8266;52.150;4.768;2023-12-28T06:48:33;14.25;;;2.65;;
16314;SDS011;8266;52.150;4.768;2023-12-28T06:51:00;15.95;;;3.03;;
16314;SDS011;8266;52.150;4.768;2023-12-28T06:53:27;16.55;;;3.33;;
16314;SDS011;8266;52.150;4.768;2023-12-28T06:55:54;17.90;;;3.55;;
16314;SDS011;8266;52.150;4.768;2023-12-28T06:58:23;14.35;;;2.88;;
16314;SDS011;8266;52.150;4.768;2023-12-28T07:00:50;12.85;;;3.40;;
16314;SDS011;8266;52.150;4.768;2023-12-28T07:03:17;18.38;;;4.47;;
16314;SDS011;8266;52.150;4.768;2023-12-28T07:05:44;20.10;;;3.05;;
16314;SDS011;8266;52.150;4.768;2023-12-28T07:08:11;13.95;;;2.88;;
16314;SDS011;8266;52.150;4.768;2023-12-28T07:10:38;14.07;;;3.10;;
16314;SDS011;8266;52.150;4.768;2023-12-28T07:13:06;12.60;;;2.97;;
16314;SDS011;8266;52.150;4.768;2023-12-28T07:15:35;14.32;;;3.45;;
16314;SDS011;8266;52.150;4.768;2023-12-28T07:18:02;18.60;;;3.60;;
16314;SDS011;8266;52.150;4.768;2023-12-28T07:20:29;12.57;;;3.75;;
16314;SDS011;8266;52.150;4.768;2023-12-28T07:22:56;12.60;;;2.70;;
16314;SDS011;8266;52.150;4.768;2023-12-28T07:25:23;13.85;;;3.47;;
16314;SDS011;8266;52.150;4.768;2023-12-28T07:27:50;12.68;;;3.03;;
16314;SDS011;8266;52.150;4.768;2023-12-28T07:30:17;13.32;;;3.67;;
16314;SDS011;8266;52.150;4.768;2023-12-28T07:32:46;13.75;;;3.38;;
16314;SDS011;8266;52.150;4.768;2023-12-28T07:35:13;12.50;;;3.33;;
16314;SDS011;8266;52.150;4.768;2023-12-28T07:37:40;18.67;;;3.50;;
16314;SDS011;8266;52.150;4.768;2023-12-28T07:40:07;17.15;;;3.10;;
16314;SDS011;8266;52.150;4.768;2023-12-28T07:42:34;12.95;;;2.95;;
16314;SDS011;8266;52.150;4.768;2023-12-28T07:45:01;17.65;;;3.55;;
16314;SDS011;8266;52.150;4.768;2023-12-28T07:47:29;15.68;;;4.00;;
16314;SDS011;8266;52.150;4.768;2023-12-28T07:49:57;12.10;;;2.72;;
16314;SDS011;8266;52.150;4.768;2023-12-28T07:52:25;11.18;;;3.05;;
16314;SDS011;8266;52.150;4.768;2023-12-28T07:54:52;15.85;;;2.75;;
16314;SDS011;8266;52.150;4.768;2023-12-28T07:57:20;18.20;;;3.67;;
16314;SDS011;8266;52.150;4.768;2023-12-28T07:59:48;13.05;;;2.80;;
16314;SDS011;8266;52.150;4.768;2023-12-28T08:02:15;10.68;;;2.72;;
16314;SDS011;8266;52.150;4.768;2023-12-28T08:04:42;15.57;;;3.47;;
16314;SDS011;8266;52.150;4.768;2023-12-28T08:07:10;13.77;;;3.15;;
16314;SDS011;8266;52.150;4.768;2023-12-28T08:09:37;11.82;;;3.00;;
16314;SDS011;8266;52.150;4.768;2023-12-28T08:12:04;17.40;;;3.92;;
16314;SDS011;8266;52.150;4.768;2023-12-28T08:14:31;18.50;;;2.92;;
16314;SDS011;8266;52.150;4.768;2023-12-28T08:16:58;13.38;;;2.53;;
16314;SDS011;8266;52.150;4.768;2023-12-28T08:19:25;16.10;;;3.00;;
16314;SDS011;8266;52.150;4.768;2023-12-28T08:21:52;11.00;;;2.70;;
16314;SDS011;8266;52.150;4.768;2023-12-28T08:24:21;12.90;;;2.85;;
16314;SDS011;8266;52.150;4.768;2023-12-28T08:26:48;16.17;;;2.72;;
16314;SDS011;8266;52.150;4.768;2023-12-28T08:29:15;18.70;;;3.42;;
16314;SDS011;8266;52.150;4.768;2023-12-28T08:31:47;9.70;;;2.45;;
16314;SDS011;8266;52.150;4.768;2023-12-28T08:34:14;14.07;;;2.60;;
16314;SDS011;8266;52.150;4.768;2023-12-28T08:36:41;19.23;;;3.58;;
16314;SDS011;8266;52.150;4.768;2023-12-28T08:39:08;12.68;;;3.63;;
16314;SDS011;8266;52.150;4.768;2023-12-28T08:41:37;15.77;;;3.30;;
16314;SDS011;8266;52.150;4.768;2023-12-28T08:44:04;11.57;;;2.58;;
16314;SDS011;8266;52.150;4.768;2023-12-28T08:46:31;16.13;;;2.50;;
16314;SDS011;8266;52.150;4.768;2023-12-28T08:48:58;10.75;;;2.53;;
16314;SDS011;8266;52.150;4.768;2023-12-28T08:51:25;15.95;;;3.00;;
16314;SDS011;8266;52.150;4.768;2023-12-28T08:53:52;10.93;;;3.08;;
16314;SDS011;8266;52.150;4.768;2023-12-28T08:56:19;12.38;;;3.67;;
16314;SDS011;8266;52.150;4.768;2023-12-28T08:58:48;14.73;;;3.45;;
16314;SDS011;8266;52.150;4.768;2023-12-28T09:01:17;14.30;;;3.58;;
16314;SDS011;8266;52.150;4.768;2023-12-28T09:03:47;12.13;;;2.65;;
16314;SDS011;8266;52.150;4.768;2023-12-28T09:06:14;12.60;;;2.97;;
16314;SDS011;8266;52.150;4.768;2023-12-28T09:08:41;11.00;;;2.60;;
16314;SDS011;8266;52.150;4.768;2023-12-28T09:11:10;11.07;;;2.45;;
16314;SDS011;8266;52.150;4.768;2023-12-28T09:13:37;11.55;;;3.17;;
16314;SDS011;8266;52.150;4.768;2023-12-28T09:16:06;14.02;;;3.15;;
16314;SDS011;8266;52.150;4.768;2023-12-28T09:18:34;13.93;;;2.60;;
16314;SDS011;8266;52.150;4.768;2023-12-28T09:21:02;12.23;;;3.03;;
16314;SDS011;8266;52.150;4.768;2023-12-28T09:23:30;13.35;;;3.22;;
16314;SDS011;8266;52.150;4.768;2023-12-28T09:25:58;19.80;;;3.92;;
16314;SDS011;8266;52.150;4.768;2023-12-28T09:28:25;12.10;;;2.60;;
16314;SDS011;8266;52.150;4.768;2023-12-28T09:30:52;15.00;;;3.22;;
16314;SDS011;8266;52.150;4.768;2023-12-28T09:33:21;9.77;;;2.70;;
16314;SDS011;8266;52.150;4.768;2023-12-28T09:35:48;9.57;;;2.65;;
16314;SDS011;8266;52.150;4.768;2023-12-28T09:38:15;10.38;;;2.63;;
16314;SDS011;8266;52.150;4.768;2023-12-28T09:40:42;14.35;;;3.20;;
16314;SDS011;8266;52.150;4.768;2023-12-28T09:43:12;10.88;;;2.65;;
16314;SDS011;8266;52.150;4.768;2023-12-28T09:45:46;11.80;;;3.08;;
16314;SDS011;8266;52.150;4.768;2023-12-28T09:48:14;12.10;;;2.40;;
16314;SDS011;8266;52.150;4.768;2023-12-28T09:50:44;11.57;;;2.80;;
16314;SDS011;8266;52.150;4.768;2023-12-28T09:53:12;12.30;;;2.55;;
16314;SDS011;8266;52.150;4.768;2023-12-28T09:55:39;15.43;;;3.10;;
16314;SDS011;8266;52.150;4.768;2023-12-28T09:58:06;14.13;;;3.30;;
16314;SDS011;8266;52.150;4.768;2023-12-28T10:00:34;9.88;;;2.75;;
16314;SDS011;8266;52.150;4.768;2023-12-28T10:03:02;12.52;;;2.92;;
16314;SDS011;8266;52.150;4.768;2023-12-28T10:05:29;13.55;;;2.58;;
16314;SDS011;8266;52.150;4.768;2023-12-28T10:07:58;11.95;;;2.55;;
16314;SDS011;8266;52.150;4.768;2023-12-28T10:10:25;15.38;;;3.40;;
16314;SDS011;8266;52.150;4.768;2023-12-28T10:12:52;13.27;;;2.95;;
16314;SDS011;8266;52.150;4.768;2023-12-28T10:15:20;14.48;;;3.20;;
16314;SDS011;8266;52.150;4.768;2023-12-28T10:17:47;12.85;;;3.25;;
16314;SDS011;8266;52.150;4.768;2023-12-28T10:20:17;12.88;;;2.95;;
16314;SDS011;8266;52.150;4.768;2023-12-28T10:22:44;17.17;;;3.05;;
16314;SDS011;8266;52.150;4.768;2023-12-28T10:25:12;11.98;;;2.88;;
16314;SDS011;8266;52.150;4.768;2023-12-28T10:27:40;12.57;;;2.97;;
16314;SDS011;8266;52.150;4.768;2023-12-28T10:30:07;13.98;;;3.17;;
16314;SDS011;8266;52.150;4.768;2023-12-28T10:32:35;11.32;;;2.97;;
16314;SDS011;8266;52.150;4.768;2023-12-28T10:35:06;14.88;;;3.67;;
16314;SDS011;8266;52.150;4.768;2023-12-28T10:37:34;16.63;;;4.30;;
16314;SDS011;8266;52.150;4.768;2023-12-28T10:40:02;14.65;;;3.47;;
16314;SDS011;8266;52.150;4.768;2023-12-28T10:42:37;12.27;;;3.03;;
16314;SDS011;8266;52.150;4.768;2023-12-28T10:45:12;15.57;;;3.35;;
16314;SDS011;8266;52.150;4.768;2023-12-28T10:47:44;15.35;;;3.40;;
16314;SDS011;8266;52.150;4.768;2023-12-28T10:50:20;16.83;;;2.90;;
16314;SDS011;8266;52.150;4.768;2023-12-28T10:52:48;20.05;;;3.70;;
16314;SDS011;8266;52.150;4.768;2023-12-28T10:55:22;12.50;;;3.05;;
16314;SDS011;8266;52.150;4.768;2023-12-28T10:58:02;14.10;;;3.13;;
16314;SDS011;8266;52.150;4.768;2023-12-28T11:00:36;15.23;;;2.72;;
16314;SDS011;8266;52.150;4.768;2023-12-28T11:03:11;14.95;;;3.35;;
16314;SDS011;8266;52.150;4.768;2023-12-28T11:05:44;14.25;;;2.85;;
16314;SDS011;8266;52.150;4.768;2023-12-28T11:08:13;15.05;;;4.03;;
16314;SDS011;8266;52.150;4.768;2023-12-28T11:10:42;13.15;;;3.00;;
16314;SDS011;8266;52.150;4.768;2023-12-28T11:13:11;10.20;;;3.25;;
16314;SDS011;8266;52.150;4.768;2023-12-28T11:15:40;15.68;;;3.88;;
16314;SDS011;8266;52.150;4.768;2023-12-28T11:18:08;13.85;;;2.95;;
16314;SDS011;8266;52.150;4.768;2023-12-28T11:20:35;13.30;;;3.17;;
16314;SDS011;8266;52.150;4.768;2023-12-28T11:23:03;16.42;;;3.28;;
16314;SDS011;8266;52.150;4.768;2023-12-28T11:25:32;10.73;;;2.92;;
16314;SDS011;8266;52.150;4.768;2023-12-28T11:27:59;14.63;;;3.53;;
16314;SDS011;8266;52.150;4.768;2023-12-28T11:30:28;13.15;;;2.58;;
16314;SDS011;8266;52.150;4.768;2023-12-28T11:32:55;12.80;;;2.95;;
16314;SDS011;8266;52.150;4.768;2023-12-28T11:35:23;16.30;;;3.95;;
16314;SDS011;8266;52.150;4.768;2023-12-28T11:37:51;10.02;;;3.00;;
16314;SDS011;8266;52.150;4.768;2023-12-28T11:40:19;16.70;;;2.83;;
16314;SDS011;8266;52.150;4.768;2023-12-28T11:42:49;13.05;;;3.50;;
16314;SDS011;8266;52.150;4.768;2023-12-28T11:45:17;14.88;;;3.42;;
16314;SDS011;8266;52.150;4.768;2023-12-28T11:47:46;10.88;;;3.42;;
16314;SDS011;8266;52.150;4.768;2023-12-28T11:50:13;12.68;;;3.22;;
16314;SDS011;8266;52.150;4.768;2023-12-28T11:52:42;10.40;;;2.65;;
16314;SDS011;8266;52.150;4.768;2023-12-28T11:55:09;16.13;;;3.78;;
16314;SDS011;8266;52.150;4.768;2023-12-28T11:57:37;11.35;;;2.88;;
16314;SDS011;8266;52.150;4.768;2023-12-28T12:00:05;11.80;;;3.35;;
16314;SDS011;8266;52.150;4.768;2023-12-28T12:02:34;12.30;;;2.78;;
16314;SDS011;8266;52.150;4.768;2023-12-28T12:05:02;14.23;;;2.72;;
16314;SDS011;8266;52.150;4.768;2023-12-28T12:07:30;14.55;;;3.63;;
16314;SDS011;8266;52.150;4.768;2023-12-28T12:09:57;13.38;;;3.03;;
16314;SDS011;8266;52.150;4.768;2023-12-28T12:12:25;13.52;;;3.45;;
16314;SDS011;8266;52.150;4.768;2023-12-28T12:14:52;25.77;;;3.83;;
16314;SDS011;8266;52.150;4.768;2023-12-28T12:17:21;17.33;;;3.13;;
16314;SDS011;8266;52.150;4.768;2023-12-28T12:19:48;16.73;;;4.40;;
16314;SDS011;8266;52.150;4.768;2023-12-28T12:22:17;14.13;;;3.15;;
16314;SDS011;8266;52.150;4.768;2023-12-28T12:24:45;14.65;;;2.85;;
16314;SDS011;8266;52.150;4.768;2023-12-28T12:27:17;18.92;;;3.00;;
16314;SDS011;8266;52.150;4.768;2023-12-28T12:29:45;12.60;;;2.47;;
16314;SDS011;8266;52.150;4.768;2023-12-28T12:32:12;17.80;;;3.40;;
16314;SDS011;8266;52.150;4.768;2023-12-28T12:34:39;15.90;;;3.50;;
16314;SDS011;8266;52.150;4.768;2023-12-28T12:37:07;14.90;;;4.20;;
16314;SDS011;8266;52.150;4.768;2023-12-28T12:39:35;13.05;;;2.58;;
16314;SDS011;8266;52.150;4.768;2023-12-28T12:42:02;14.23;;;2.83;;
16314;SDS011;8266;52.150;4.768;2023-12-28T12:44:30;12.82;;;2.67;;
16314;SDS011;8266;52.150;4.768;2023-12-28T12:46:57;14.48;;;4.15;;
16314;SDS011;8266;52.150;4.768;2023-12-28T12:49:25;12.68;;;2.70;;
16314;SDS011;8266;52.150;4.768;2023-12-28T12:51:52;13.35;;;3.15;;
16314;SDS011;8266;52.150;4.768;2023-12-28T12:54:19;15.75;;;3.45;;
16314;SDS011;8266;52.150;4.768;2023-12-28T12:56:48;10.32;;;3.20;;
16314;SDS011;8266;52.150;4.768;2023-12-28T12:59:16;14.63;;;2.92;;
16314;SDS011;8266;52.150;4.768;2023-12-28T13:01:43;13.95;;;3.13;;
16314;SDS011;8266;52.150;4.768;2023-12-28T13:04:13;10.95;;;2.50;;
16314;SDS011;8266;52.150;4.768;2023-12-28T13:06:42;9.50;;;2.67;;
16314;SDS011;8266;52.150;4.768;2023-12-28T13:09:09;10.18;;;2.92;;
16314;SDS011;8266;52.150;4.768;2023-12-28T13:11:37;12.30;;;3.17;;
16314;SDS011;8266;52.150;4.768;2023-12-28T13:14:06;13.90;;;2.75;;
16314;SDS011;8266;52.150;4.768;2023-12-28T13:16:33;14.88;;;3.88;;
16314;SDS011;8266;52.150;4.768;2023-12-28T13:19:00;17.45;;;2.72;;
16314;SDS011;8266;52.150;4.768;2023-12-28T13:21:27;15.13;;;2.83;;
16314;SDS011;8266;52.150;4.768;2023-12-28T13:23:54;14.88;;;3.10;;
16314;SDS011;8266;52.150;4.768;2023-12-28T13:26:22;10.30;;;2.65;;
16314;SDS011;8266;52.150;4.768;2023-12-28T13:28:49;11.20;;;2.63;;
16314;SDS011;8266;52.150;4.768;2023-12-28T13:31:17;10.90;;;2.85;;
16314;SDS011;8266;52.150;4.768;2023-12-28T13:33:44;13.98;;;3.03;;
16314;SDS011;8266;52.150;4.768;2023-12-28T13:36:11;20.52;;;4.18;;
16314;SDS011;8266;52.150;4.768;2023-12-28T13:38:38;13.10;;;2.85;;
16314;SDS011;8266;52.150;4.768;2023-12-28T13:41:06;14.75;;;3.08;;
16314;SDS011;8266;52.150;4.768;2023-12-28T13:43:33;11.73;;;3.22;;
16314;SDS011;8266;52.150;4.768;2023-12-28T13:46:00;13.05;;;2.80;;
16314;SDS011;8266;52.150;4.768;2023-12-28T13:48:30;10.90;;;2.53;;
16314;SDS011;8266;52.150;4.768;2023-12-28T13:50:57;15.13;;;3.40;;
16314;SDS011;8266;52.150;4.768;2023-12-28T13:53:24;13.60;;;3.33;;
16314;SDS011;8266;52.150;4.768;2023-12-28T13:55:51;12.75;;;3.10;;
16314;SDS011;8266;52.150;4.768;2023-12-28T13:58:18;14.38;;;2.80;;
16314;SDS011;8266;52.150;4.768;2023-12-28T14:00:45;11.38;;;3.25;;
16314;SDS011;8266;52.150;4.768;2023-12-28T14:03:12;14.15;;;2.97;;
16314;SDS011;8266;52.150;4.768;2023-12-28T14:05:41;12.73;;;3.30;;
16314;SDS011;8266;52.150;4.768;2023-12-28T14:08:08;12.18;;;3.00;;
16314;SDS011;8266;52.150;4.768;2023-12-28T14:10:35;16.60;;;3.47;;
16314;SDS011;8266;52.150;4.768;2023-12-28T14:13:03;21.42;;;4.57;;
16314;SDS011;8266;52.150;4.768;2023-12-28T14:15:31;10.90;;;2.78;;
16314;SDS011;8266;52.150;4.768;2023-12-28T14:17:58;13.98;;;3.85;;
16314;SDS011;8266;52.150;4.768;2023-12-28T14:20:25;13.23;;;3.28;;
16314;SDS011;8266;52.150;4.768;2023-12-28T14:22:54;15.38;;;3.10;;
16314;SDS011;8266;52.150;4.768;2023-12-28T14:25:23;11.27;;;3.05;;
16314;SDS011;8266;52.150;4.768;2023-12-28T14:27:50;10.90;;;3.08;;
16314;SDS011;8266;52.150;4.768;2023-12-28T14:30:18;12.43;;;3.20;;
16314;SDS011;8266;52.150;4.768;2023-12-28T14:32:46;12.30;;;2.90;;
16314;SDS011;8266;52.150;4.768;2023-12-28T14:35:14;13.05;;;2.63;;
16314;SDS011;8266;52.150;4.768;2023-12-28T14:37:42;11.07;;;2.70;;
16314;SDS011;8266;52.150;4.768;2023-12-28T14:40:11;14.25;;;3.70;;
16314;SDS011;8266;52.150;4.768;2023-12-28T14:42:38;9.77;;;3.08;;
16314;SDS011;8266;52.150;4.768;2023-12-28T14:45:06;13.88;;;3.90;;
16314;SDS011;8266;52.150;4.768;2023-12-28T14:47:33;14.07;;;3.20;;
16314;SDS011;8266;52.150;4.768;2023-12-28T14:50:00;18.63;;;3.92;;
16314;SDS011;8266;52.150;4.768;2023-12-28T14:52:30;10.75;;;2.55;;
16314;SDS011;8266;52.150;4.768;2023-12-28T14:54:57;14.65;;;3.17;;
16314;SDS011;8266;52.150;4.768;2023-12-28T14:57:25;13.93;;;2.97;;